Aeroporto :







RITROVATECI SU...

 
LOGIN :

Iscrizione | Disclaimer

   EN    FR    IT 

 









Sommario :    VFR   VFR Marginale   IFR   IFR Intensivo   IFR Molto Intensivo
Visibilità : 
Base nubi : 
>= 8 km
>= 3000ft
5 / 8 km
1000 / 3000 ft
1500m / 5 km
500 / 1000 ft
800 / 1500m
200 / 500 ft
< 800m
< 200 ft
Simboli :   Temporali  Nebbia  Neve Forte  Precipitazioni Forti  Vento > 20 kt






- Altitudine del aeroporto : 22 ft
- Codice IATA : YDP


CYDP - Nain

ULTIMO METAR :
  • 112000Z 26013G19KT 15SM FEW017 M08/M14 A2962 RMK SC1 SLP032

METARs OBSOLETI :
  • 111900Z 25009KT 15SM FEW017 M09/M15 A2962 RMK SC1 SLP033
  • 111800Z 27013G21KT 15SM FEW017 FEW130 M09/M15 A2961 RMK SC1AC1 TR AC SLP030

TAF TAF CYDP
Valido dal 11 a 20 ore il 12 a 00 ore UTC


111942Z 1120/1124 26010KT P6SM FEW020
BECMG 1120/1122 28018G28KT RMK NXT FCST WILL BE ISSUED AT 121045Z



MetMap, La meteo Aeronautica in un colpo d'occhio ! - Copyright ORBIFLY Dicembre 2007 - Disclaimer

ORBIFLY MET'MAP TEAM :

Programmazione e sviluppo : Alexandra Zaïnal
Concezione e sviluppo : Baudouin d'Aumeries
Co-Programmazione e sviluppo : Marc-Olivier Méhu
Supporto tecnico e logistico : Manuel Goepfert
Aiuto per la traduzione : Arnaldo La Scala

Contatto : metmap@orbifly.com




FONTI E CREDITI :

   NOAA